sensor_id;sensor_type;location;lat;lon;timestamp;temperature;humidity
20125;DHT22;10223;50.862;4.360;2023-02-18T00:00:59;11.00;99.90
20125;DHT22;10223;50.862;4.360;2023-02-18T00:03:27;11.00;99.90
20125;DHT22;10223;50.862;4.360;2023-02-18T00:05:54;10.90;99.90
20125;DHT22;10223;50.862;4.360;2023-02-18T00:08:22;10.90;99.90
20125;DHT22;10223;50.862;4.360;2023-02-18T00:10:49;10.90;99.90
20125;DHT22;10223;50.862;4.360;2023-02-18T00:13:16;10.90;99.90
20125;DHT22;10223;50.862;4.360;2023-02-18T00:15:43;10.90;99.90
20125;DHT22;10223;50.862;4.360;2023-02-18T00:18:10;10.90;99.90
20125;DHT22;10223;50.862;4.360;2023-02-18T00:20:38;10.90;99.90
20125;DHT22;10223;50.862;4.360;2023-02-18T00:23:05;10.90;99.90
20125;DHT22;10223;50.862;4.360;2023-02-18T00:25:33;10.90;99.90
20125;DHT22;10223;50.862;4.360;2023-02-18T00:28:00;10.90;99.90
20125;DHT22;10223;50.862;4.360;2023-02-18T00:30:27;10.80;99.90
20125;DHT22;10223;50.862;4.360;2023-02-18T00:32:54;11.00;99.90
20125;DHT22;10223;50.862;4.360;2023-02-18T00:35:21;10.80;99.90
20125;DHT22;10223;50.862;4.360;2023-02-18T00:37:50;10.80;99.90
20125;DHT22;10223;50.862;4.360;2023-02-18T00:40:18;10.80;99.90
20125;DHT22;10223;50.862;4.360;2023-02-18T00:42:47;10.80;99.90
20125;DHT22;10223;50.862;4.360;2023-02-18T00:45:14;10.80;99.90
20125;DHT22;10223;50.862;4.360;2023-02-18T00:47:41;10.80;99.90
20125;DHT22;10223;50.862;4.360;2023-02-18T00:50:09;10.70;99.90
20125;DHT22;10223;50.862;4.360;2023-02-18T00:52:36;10.70;99.90
20125;DHT22;10223;50.862;4.360;2023-02-18T00:55:04;10.80;99.90
20125;DHT22;10223;50.862;4.360;2023-02-18T00:57:31;10.70;99.90
20125;DHT22;10223;50.862;4.360;2023-02-18T00:59:59;10.70;99.90
20125;DHT22;10223;50.862;4.360;2023-02-18T01:02:26;10.70;99.90
20125;DHT22;10223;50.862;4.360;2023-02-18T01:04:53;10.70;99.90
20125;DHT22;10223;50.862;4.360;2023-02-18T01:07:20;10.70;99.90
20125;DHT22;10223;50.862;4.360;2023-02-18T01:09:47;10.70;99.90
20125;DHT22;10223;50.862;4.360;2023-02-18T01:12:14;10.80;99.90
20125;DHT22;10223;50.862;4.360;2023-02-18T01:14:41;10.80;99.90
20125;DHT22;10223;50.862;4.360;2023-02-18T01:17:09;10.70;99.90
20125;DHT22;10223;50.862;4.360;2023-02-18T01:19:36;10.80;99.90
20125;DHT22;10223;50.862;4.360;2023-02-18T01:22:03;10.70;99.90
20125;DHT22;10223;50.862;4.360;2023-02-18T01:24:31;10.70;99.90
20125;DHT22;10223;50.862;4.360;2023-02-18T01:26:58;10.70;99.90
20125;DHT22;10223;50.862;4.360;2023-02-18T01:29:25;10.70;99.90
20125;DHT22;10223;50.862;4.360;2023-02-18T01:31:52;10.70;99.90
20125;DHT22;10223;50.862;4.360;2023-02-18T01:34:20;10.70;99.90
20125;DHT22;10223;50.862;4.360;2023-02-18T01:36:47;10.70;99.90
20125;DHT22;10223;50.862;4.360;2023-02-18T01:39:14;10.70;99.90
20125;DHT22;10223;50.862;4.360;2023-02-18T01:41:41;10.70;99.90
20125;DHT22;10223;50.862;4.360;2023-02-18T01:44:16;10.70;99.90
20125;DHT22;10223;50.862;4.360;2023-02-18T01:46:43;10.70;99.90
20125;DHT22;10223;50.862;4.360;2023-02-18T01:49:13;10.80;99.90
20125;DHT22;10223;50.862;4.360;2023-02-18T01:51:45;10.60;99.90
20125;DHT22;10223;50.862;4.360;2023-02-18T01:54:16;10.60;99.90
20125;DHT22;10223;50.862;4.360;2023-02-18T01:56:47;10.60;99.90
20125;DHT22;10223;50.862;4.360;2023-02-18T01:59:18;10.60;99.90
20125;DHT22;10223;50.862;4.360;2023-02-18T02:01:47;10.70;99.90
20125;DHT22;10223;50.862;4.360;2023-02-18T02:04:14;10.60;99.90
20125;DHT22;10223;50.862;4.360;2023-02-18T02:06:42;10.60;99.90
20125;DHT22;10223;50.862;4.360;2023-02-18T02:09:12;10.50;99.90
20125;DHT22;10223;50.862;4.360;2023-02-18T02:14:56;10.50;99.90
20125;DHT22;10223;50.862;4.360;2023-02-18T02:17:32;10.50;99.90
20125;DHT22;10223;50.862;4.360;2023-02-18T02:26:35;10.60;99.90
20125;DHT22;10223;50.862;4.360;2023-02-18T02:29:43;10.60;99.90
20125;DHT22;10223;50.862;4.360;2023-02-18T02:32:38;10.60;99.90
20125;DHT22;10223;50.862;4.360;2023-02-18T02:35:12;10.60;99.90
20125;DHT22;10223;50.862;4.360;2023-02-18T02:37:45;10.60;99.90
20125;DHT22;10223;50.862;4.360;2023-02-18T02:40:21;10.60;99.90
20125;DHT22;10223;50.862;4.360;2023-02-18T02:42:59;10.60;99.90
20125;DHT22;10223;50.862;4.360;2023-02-18T02:45:38;10.60;99.90
20125;DHT22;10223;50.862;4.360;2023-02-18T02:48:15;10.60;99.90
20125;DHT22;10223;50.862;4.360;2023-02-18T02:50:51;10.70;99.90
20125;DHT22;10223;50.862;4.360;2023-02-18T02:53:23;10.60;99.90
20125;DHT22;10223;50.862;4.360;2023-02-18T02:55:51;10.60;99.90
20125;DHT22;10223;50.862;4.360;2023-02-18T02:58:19;10.70;99.90
20125;DHT22;10223;50.862;4.360;2023-02-18T03:00:57;10.60;99.90
20125;DHT22;10223;50.862;4.360;2023-02-18T03:03:42;10.60;99.90
20125;DHT22;10223;50.862;4.360;2023-02-18T03:06:26;10.60;99.90
20125;DHT22;10223;50.862;4.360;2023-02-18T03:09:03;10.70;99.90
20125;DHT22;10223;50.862;4.360;2023-02-18T03:11:38;10.60;99.90
20125;DHT22;10223;50.862;4.360;2023-02-18T03:14:12;10.60;99.90
20125;DHT22;10223;50.862;4.360;2023-02-18T03:16:45;10.60;99.90
20125;DHT22;10223;50.862;4.360;2023-02-18T03:19:19;10.50;99.90
20125;DHT22;10223;50.862;4.360;2023-02-18T03:21:54;10.50;99.90
20125;DHT22;10223;50.862;4.360;2023-02-18T03:24:25;10.50;99.90
20125;DHT22;10223;50.862;4.360;2023-02-18T03:26:55;10.50;99.90
20125;DHT22;10223;50.862;4.360;2023-02-18T03:29:22;10.50;99.90
20125;DHT22;10223;50.862;4.360;2023-02-18T03:31:56;10.50;99.90
20125;DHT22;10223;50.862;4.360;2023-02-18T03:34:27;10.40;99.90
20125;DHT22;10223;50.862;4.360;2023-02-18T03:36:57;10.50;99.90
20125;DHT22;10223;50.862;4.360;2023-02-18T03:39:27;10.40;99.90
20125;DHT22;10223;50.862;4.360;2023-02-18T03:41:54;10.40;99.90
20125;DHT22;10223;50.862;4.360;2023-02-18T03:44:23;10.30;99.90
20125;DHT22;10223;50.862;4.360;2023-02-18T03:46:50;10.30;99.90
20125;DHT22;10223;50.862;4.360;2023-02-18T03:49:17;10.30;99.90
20125;DHT22;10223;50.862;4.360;2023-02-18T03:51:44;10.30;99.90
20125;DHT22;10223;50.862;4.360;2023-02-18T03:54:13;10.30;99.90
20125;DHT22;10223;50.862;4.360;2023-02-18T03:56:40;10.30;99.90
20125;DHT22;10223;50.862;4.360;2023-02-18T03:59:07;10.30;99.90
20125;DHT22;10223;50.862;4.360;2023-02-18T04:01:34;10.30;99.90
20125;DHT22;10223;50.862;4.360;2023-02-18T04:04:01;10.30;99.90
20125;DHT22;10223;50.862;4.360;2023-02-18T04:06:28;10.30;99.90
20125;DHT22;10223;50.862;4.360;2023-02-18T04:08:55;10.30;99.90
20125;DHT22;10223;50.862;4.360;2023-02-18T04:11:24;10.30;99.90
20125;DHT22;10223;50.862;4.360;2023-02-18T04:13:50;10.40;99.90
20125;DHT22;10223;50.862;4.360;2023-02-18T04:16:17;10.30;99.90
20125;DHT22;10223;50.862;4.360;2023-02-18T04:18:44;10.20;99.90
20125;DHT22;10223;50.862;4.360;2023-02-18T04:21:11;10.30;99.90
20125;DHT22;10223;50.862;4.360;2023-02-18T04:23:38;10.20;99.90
20125;DHT22;10223;50.862;4.360;2023-02-18T04:26:05;10.20;99.90
20125;DHT22;10223;50.862;4.360;2023-02-18T04:28:33;10.10;99.90
20125;DHT22;10223;50.862;4.360;2023-02-18T04:31:00;10.20;99.90
20125;DHT22;10223;50.862;4.360;2023-02-18T04:33:27;10.10;99.90
20125;DHT22;10223;50.862;4.360;2023-02-18T04:35:54;10.10;99.90
20125;DHT22;10223;50.862;4.360;2023-02-18T04:38:21;10.20;99.90
20125;DHT22;10223;50.862;4.360;2023-02-18T04:40:48;10.20;99.90
20125;DHT22;10223;50.862;4.360;2023-02-18T04:43:15;10.20;99.90
20125;DHT22;10223;50.862;4.360;2023-02-18T04:45:43;10.20;99.90
20125;DHT22;10223;50.862;4.360;2023-02-18T04:48:10;10.00;99.90
20125;DHT22;10223;50.862;4.360;2023-02-18T04:50:37;10.10;99.90
20125;DHT22;10223;50.862;4.360;2023-02-18T04:53:03;10.20;99.90
20125;DHT22;10223;50.862;4.360;2023-02-18T04:55:30;10.20;99.90
20125;DHT22;10223;50.862;4.360;2023-02-18T04:57:57;10.10;99.90
20125;DHT22;10223;50.862;4.360;2023-02-18T05:00:24;10.20;99.90
20125;DHT22;10223;50.862;4.360;2023-02-18T05:02:54;10.30;99.90
20125;DHT22;10223;50.862;4.360;2023-02-18T05:05:21;10.20;99.90
20125;DHT22;10223;50.862;4.360;2023-02-18T05:07:48;10.20;99.90
20125;DHT22;10223;50.862;4.360;2023-02-18T05:10:16;10.20;99.90
20125;DHT22;10223;50.862;4.360;2023-02-18T05:12:44;10.20;99.90
20125;DHT22;10223;50.862;4.360;2023-02-18T05:15:11;10.20;99.90
20125;DHT22;10223;50.862;4.360;2023-02-18T05:17:38;10.10;99.90
20125;DHT22;10223;50.862;4.360;2023-02-18T05:20:07;10.20;99.90
20125;DHT22;10223;50.862;4.360;2023-02-18T05:22:34;10.10;99.90
20125;DHT22;10223;50.862;4.360;2023-02-18T05:25:01;10.20;99.90
20125;DHT22;10223;50.862;4.360;2023-02-18T05:27:28;10.10;99.90
20125;DHT22;10223;50.862;4.360;2023-02-18T05:29:55;10.10;99.90
20125;DHT22;10223;50.862;4.360;2023-02-18T05:32:22;10.00;99.90
20125;DHT22;10223;50.862;4.360;2023-02-18T05:34:49;10.10;99.90
20125;DHT22;10223;50.862;4.360;2023-02-18T05:37:17;10.00;99.90
20125;DHT22;10223;50.862;4.360;2023-02-18T05:39:44;10.00;99.90
20125;DHT22;10223;50.862;4.360;2023-02-18T05:42:11;10.00;99.90
20125;DHT22;10223;50.862;4.360;2023-02-18T05:44:38;10.10;99.90
20125;DHT22;10223;50.862;4.360;2023-02-18T05:47:08;10.10;99.90
20125;DHT22;10223;50.862;4.360;2023-02-18T05:49:35;10.10;99.90
20125;DHT22;10223;50.862;4.360;2023-02-18T05:52:03;10.10;99.90
20125;DHT22;10223;50.862;4.360;2023-02-18T05:54:32;10.10;99.90
20125;DHT22;10223;50.862;4.360;2023-02-18T05:56:59;10.10;99.90
20125;DHT22;10223;50.862;4.360;2023-02-18T05:59:26;10.10;99.90
20125;DHT22;10223;50.862;4.360;2023-02-18T06:01:53;10.20;99.90
20125;DHT22;10223;50.862;4.360;2023-02-18T06:04:20;10.20;99.90
20125;DHT22;10223;50.862;4.360;2023-02-18T06:06:47;10.20;99.90
20125;DHT22;10223;50.862;4.360;2023-02-18T06:09:14;10.20;99.90
20125;DHT22;10223;50.862;4.360;2023-02-18T06:11:42;10.30;99.90
20125;DHT22;10223;50.862;4.360;2023-02-18T06:14:09;10.30;99.90
20125;DHT22;10223;50.862;4.360;2023-02-18T06:16:36;10.30;99.90
20125;DHT22;10223;50.862;4.360;2023-02-18T06:19:03;10.40;99.90
20125;DHT22;10223;50.862;4.360;2023-02-18T06:21:30;10.30;99.90
20125;DHT22;10223;50.862;4.360;2023-02-18T06:23:57;10.30;99.90
20125;DHT22;10223;50.862;4.360;2023-02-18T06:26:24;10.30;99.90
20125;DHT22;10223;50.862;4.360;2023-02-18T06:28:53;10.30;99.90
20125;DHT22;10223;50.862;4.360;2023-02-18T06:31:20;10.30;99.90
20125;DHT22;10223;50.862;4.360;2023-02-18T06:33:46;10.50;99.90
20125;DHT22;10223;50.862;4.360;2023-02-18T06:36:13;10.40;99.90
20125;DHT22;10223;50.862;4.360;2023-02-18T06:38:42;10.30;99.90
20125;DHT22;10223;50.862;4.360;2023-02-18T06:41:11;10.30;99.90
20125;DHT22;10223;50.862;4.360;2023-02-18T06:43:38;10.40;99.90
20125;DHT22;10223;50.862;4.360;2023-02-18T06:46:07;10.30;99.90
20125;DHT22;10223;50.862;4.360;2023-02-18T06:48:34;10.40;99.90
20125;DHT22;10223;50.862;4.360;2023-02-18T06:51:00;10.40;99.90
20125;DHT22;10223;50.862;4.360;2023-02-18T06:53:28;10.30;99.90
20125;DHT22;10223;50.862;4.360;2023-02-18T06:55:55;10.30;99.90
20125;DHT22;10223;50.862;4.360;2023-02-18T06:58:22;10.40;99.90
20125;DHT22;10223;50.862;4.360;2023-02-18T07:00:49;10.40;99.90
20125;DHT22;10223;50.862;4.360;2023-02-18T07:03:17;10.50;99.90
20125;DHT22;10223;50.862;4.360;2023-02-18T07:05:44;10.40;99.90
20125;DHT22;10223;50.862;4.360;2023-02-18T07:08:11;10.30;99.90
20125;DHT22;10223;50.862;4.360;2023-02-18T07:10:38;10.30;99.90
20125;DHT22;10223;50.862;4.360;2023-02-18T07:13:05;10.30;99.90
20125;DHT22;10223;50.862;4.360;2023-02-18T07:15:32;10.30;99.90
20125;DHT22;10223;50.862;4.360;2023-02-18T07:17:59;10.30;99.90
20125;DHT22;10223;50.862;4.360;2023-02-18T07:20:28;10.30;99.90
20125;DHT22;10223;50.862;4.360;2023-02-18T07:22:55;10.30;99.90
20125;DHT22;10223;50.862;4.360;2023-02-18T07:25:22;10.30;99.90
20125;DHT22;10223;50.862;4.360;2023-02-18T07:27:49;10.30;99.90
20125;DHT22;10223;50.862;4.360;2023-02-18T07:30:17;10.30;99.90
20125;DHT22;10223;50.862;4.360;2023-02-18T07:32:44;10.30;99.90
20125;DHT22;10223;50.862;4.360;2023-02-18T07:35:13;10.30;99.90
20125;DHT22;10223;50.862;4.360;2023-02-18T07:37:44;10.30;99.90
20125;DHT22;10223;50.862;4.360;2023-02-18T07:40:13;10.30;99.90
20125;DHT22;10223;50.862;4.360;2023-02-18T07:42:40;10.40;99.90
20125;DHT22;10223;50.862;4.360;2023-02-18T07:45:08;10.30;99.90
20125;DHT22;10223;50.862;4.360;2023-02-18T07:47:35;10.30;99.90
20125;DHT22;10223;50.862;4.360;2023-02-18T07:50:02;10.20;99.90
20125;DHT22;10223;50.862;4.360;2023-02-18T07:52:30;10.30;99.90
20125;DHT22;10223;50.862;4.360;2023-02-18T07:54:58;10.30;99.90
20125;DHT22;10223;50.862;4.360;2023-02-18T07:57:25;10.30;99.90
20125;DHT22;10223;50.862;4.360;2023-02-18T07:59:52;10.40;99.90
20125;DHT22;10223;50.862;4.360;2023-02-18T08:02:21;10.40;99.90
20125;DHT22;10223;50.862;4.360;2023-02-18T08:04:48;10.40;99.90
20125;DHT22;10223;50.862;4.360;2023-02-18T08:07:16;10.40;99.90
20125;DHT22;10223;50.862;4.360;2023-02-18T08:09:43;10.40;99.90
20125;DHT22;10223;50.862;4.360;2023-02-18T08:12:12;10.40;99.90
20125;DHT22;10223;50.862;4.360;2023-02-18T08:14:39;10.40;99.90
20125;DHT22;10223;50.862;4.360;2023-02-18T08:17:06;10.60;99.90
20125;DHT22;10223;50.862;4.360;2023-02-18T08:19:33;10.50;99.90
20125;DHT22;10223;50.862;4.360;2023-02-18T08:22:00;10.60;99.90
20125;DHT22;10223;50.862;4.360;2023-02-18T08:24:28;10.60;99.90
20125;DHT22;10223;50.862;4.360;2023-02-18T08:26:55;10.60;99.90
20125;DHT22;10223;50.862;4.360;2023-02-18T08:29:23;10.60;99.90
20125;DHT22;10223;50.862;4.360;2023-02-18T08:31:50;10.60;99.90
20125;DHT22;10223;50.862;4.360;2023-02-18T08:34:18;10.60;99.90
20125;DHT22;10223;50.862;4.360;2023-02-18T08:36:45;10.60;99.90
20125;DHT22;10223;50.862;4.360;2023-02-18T08:39:12;10.60;99.90
20125;DHT22;10223;50.862;4.360;2023-02-18T08:41:39;10.60;99.90
20125;DHT22;10223;50.862;4.360;2023-02-18T08:44:06;10.60;99.90
20125;DHT22;10223;50.862;4.360;2023-02-18T08:46:34;10.60;99.90
20125;DHT22;10223;50.862;4.360;2023-02-18T08:49:02;10.70;99.90
20125;DHT22;10223;50.862;4.360;2023-02-18T08:51:30;10.60;99.90
20125;DHT22;10223;50.862;4.360;2023-02-18T08:53:57;10.60;99.90
20125;DHT22;10223;50.862;4.360;2023-02-18T08:56:24;10.60;99.90
20125;DHT22;10223;50.862;4.360;2023-02-18T08:58:51;10.60;99.90
20125;DHT22;10223;50.862;4.360;2023-02-18T09:01:17;10.60;99.90
20125;DHT22;10223;50.862;4.360;2023-02-18T09:03:46;10.60;99.90
20125;DHT22;10223;50.862;4.360;2023-02-18T09:06:13;10.60;99.90
20125;DHT22;10223;50.862;4.360;2023-02-18T09:08:40;10.70;99.90
20125;DHT22;10223;50.862;4.360;2023-02-18T09:11:07;10.80;99.90
20125;DHT22;10223;50.862;4.360;2023-02-18T09:13:35;10.70;99.90
20125;DHT22;10223;50.862;4.360;2023-02-18T09:16:05;10.90;99.90
20125;DHT22;10223;50.862;4.360;2023-02-18T09:18:33;10.80;99.90
20125;DHT22;10223;50.862;4.360;2023-02-18T09:21:04;10.80;99.90
20125;DHT22;10223;50.862;4.360;2023-02-18T09:23:32;10.80;99.90
20125;DHT22;10223;50.862;4.360;2023-02-18T09:25:59;10.70;99.90
20125;DHT22;10223;50.862;4.360;2023-02-18T09:28:26;10.80;99.90
20125;DHT22;10223;50.862;4.360;2023-02-18T09:30:53;10.80;99.90
20125;DHT22;10223;50.862;4.360;2023-02-18T09:33:20;10.70;99.90
20125;DHT22;10223;50.862;4.360;2023-02-18T09:35:47;10.70;99.90
20125;DHT22;10223;50.862;4.360;2023-02-18T09:38:16;10.70;99.90
20125;DHT22;10223;50.862;4.360;2023-02-18T09:40:46;10.80;99.90
20125;DHT22;10223;50.862;4.360;2023-02-18T09:43:21;10.80;99.90
20125;DHT22;10223;50.862;4.360;2023-02-18T09:45:50;10.80;99.90
20125;DHT22;10223;50.862;4.360;2023-02-18T09:48:20;10.90;99.90
20125;DHT22;10223;50.862;4.360;2023-02-18T09:50:52;10.80;99.90
20125;DHT22;10223;50.862;4.360;2023-02-18T09:53:20;10.80;99.90
20125;DHT22;10223;50.862;4.360;2023-02-18T09:55:48;10.90;99.90
20125;DHT22;10223;50.862;4.360;2023-02-18T09:58:18;11.00;99.90
20125;DHT22;10223;50.862;4.360;2023-02-18T10:00:48;10.90;99.90
20125;DHT22;10223;50.862;4.360;2023-02-18T10:03:19;10.90;99.90
20125;DHT22;10223;50.862;4.360;2023-02-18T10:05:54;10.90;99.90
20125;DHT22;10223;50.862;4.360;2023-02-18T10:08:25;10.90;99.90
20125;DHT22;10223;50.862;4.360;2023-02-18T10:10:53;10.90;99.90
20125;DHT22;10223;50.862;4.360;2023-02-18T10:13:22;10.90;99.90
20125;DHT22;10223;50.862;4.360;2023-02-18T10:15:51;11.00;99.90
20125;DHT22;10223;50.862;4.360;2023-02-18T10:18:24;11.00;99.90
20125;DHT22;10223;50.862;4.360;2023-02-18T10:20:55;11.00;99.90
20125;DHT22;10223;50.862;4.360;2023-02-18T10:23:24;11.00;99.90
20125;DHT22;10223;50.862;4.360;2023-02-18T10:25:54;11.00;99.90
20125;DHT22;10223;50.862;4.360;2023-02-18T10:28:22;11.00;99.90
20125;DHT22;10223;50.862;4.360;2023-02-18T10:30:56;11.00;99.90
20125;DHT22;10223;50.862;4.360;2023-02-18T10:33:32;11.00;99.90
20125;DHT22;10223;50.862;4.360;2023-02-18T10:36:06;11.10;99.90
20125;DHT22;10223;50.862;4.360;2023-02-18T10:38:48;11.10;99.90
20125;DHT22;10223;50.862;4.360;2023-02-18T10:41:26;11.10;99.90
20125;DHT22;10223;50.862;4.360;2023-02-18T10:44:01;11.10;99.90
20125;DHT22;10223;50.862;4.360;2023-02-18T10:46:38;11.20;99.90
20125;DHT22;10223;50.862;4.360;2023-02-18T10:49:29;11.10;99.90
20125;DHT22;10223;50.862;4.360;2023-02-18T10:52:02;11.10;99.90
20125;DHT22;10223;50.862;4.360;2023-02-18T10:54:48;11.10;99.90
20125;DHT22;10223;50.862;4.360;2023-02-18T10:57:17;11.20;99.90
20125;DHT22;10223;50.862;4.360;2023-02-18T10:59:54;11.30;99.90
20125;DHT22;10223;50.862;4.360;2023-02-18T11:02:24;11.30;99.90
20125;DHT22;10223;50.862;4.360;2023-02-18T11:04:51;11.20;99.90
20125;DHT22;10223;50.862;4.360;2023-02-18T11:07:22;11.20;99.90
20125;DHT22;10223;50.862;4.360;2023-02-18T11:09:53;11.20;99.90
20125;DHT22;10223;50.862;4.360;2023-02-18T11:12:23;11.20;99.90
20125;DHT22;10223;50.862;4.360;2023-02-18T11:15:15;11.30;99.90
20125;DHT22;10223;50.862;4.360;2023-02-18T11:17:45;11.30;99.90
20125;DHT22;10223;50.862;4.360;2023-02-18T11:20:28;11.30;99.90
20125;DHT22;10223;50.862;4.360;2023-02-18T11:22:58;11.40;99.90
20125;DHT22;10223;50.862;4.360;2023-02-18T11:25:29;11.40;99.90
20125;DHT22;10223;50.862;4.360;2023-02-18T11:28:00;11.40;99.90
20125;DHT22;10223;50.862;4.360;2023-02-18T11:30:32;11.30;99.90
20125;DHT22;10223;50.862;4.360;2023-02-18T11:33:06;11.30;99.90
20125;DHT22;10223;50.862;4.360;2023-02-18T11:35:35;11.40;99.90
20125;DHT22;10223;50.862;4.360;2023-02-18T11:38:17;11.40;99.90
20125;DHT22;10223;50.862;4.360;2023-02-18T11:40:55;11.50;99.90
20125;DHT22;10223;50.862;4.360;2023-02-18T11:43:26;11.50;99.90
20125;DHT22;10223;50.862;4.360;2023-02-18T11:46:08;11.50;99.90
20125;DHT22;10223;50.862;4.360;2023-02-18T11:48:37;11.50;99.90
20125;DHT22;10223;50.862;4.360;2023-02-18T11:51:04;11.60;99.90
20125;DHT22;10223;50.862;4.360;2023-02-18T11:53:33;11.60;99.90
20125;DHT22;10223;50.862;4.360;2023-02-18T11:56:04;11.60;99.90
20125;DHT22;10223;50.862;4.360;2023-02-18T11:58:37;11.60;99.90
20125;DHT22;10223;50.862;4.360;2023-02-18T12:01:06;11.80;99.90
20125;DHT22;10223;50.862;4.360;2023-02-18T12:03:43;11.60;99.90
20125;DHT22;10223;50.862;4.360;2023-02-18T12:06:14;11.70;99.90
20125;DHT22;10223;50.862;4.360;2023-02-18T12:08:48;11.60;99.90
20125;DHT22;10223;50.862;4.360;2023-02-18T12:11:23;11.60;99.90
20125;DHT22;10223;50.862;4.360;2023-02-18T12:13:54;11.60;99.90
20125;DHT22;10223;50.862;4.360;2023-02-18T12:16:28;11.60;99.90
20125;DHT22;10223;50.862;4.360;2023-02-18T12:19:07;11.70;99.90
20125;DHT22;10223;50.862;4.360;2023-02-18T12:21:46;11.70;99.90
20125;DHT22;10223;50.862;4.360;2023-02-18T12:24:28;11.70;99.90
20125;DHT22;10223;50.862;4.360;2023-02-18T12:27:08;11.80;99.90
20125;DHT22;10223;50.862;4.360;2023-02-18T12:29:54;11.80;99.90
20125;DHT22;10223;50.862;4.360;2023-02-18T12:32:39;11.90;99.90
20125;DHT22;10223;50.862;4.360;2023-02-18T12:35:28;11.90;99.90
20125;DHT22;10223;50.862;4.360;2023-02-18T12:38:13;11.80;99.90
20125;DHT22;10223;50.862;4.360;2023-02-18T12:40:55;11.80;99.90
20125;DHT22;10223;50.862;4.360;2023-02-18T12:43:36;11.90;99.90
20125;DHT22;10223;50.862;4.360;2023-02-18T12:46:24;11.90;99.90
20125;DHT22;10223;50.862;4.360;2023-02-18T12:49:23;11.90;99.90
20125;DHT22;10223;50.862;4.360;2023-02-18T12:52:01;12.00;99.90
20125;DHT22;10223;50.862;4.360;2023-02-18T12:54:44;12.00;99.90
20125;DHT22;10223;50.862;4.360;2023-02-18T12:57:24;12.00;99.90
20125;DHT22;10223;50.862;4.360;2023-02-18T13:06:23;11.80;99.90
20125;DHT22;10223;50.862;4.360;2023-02-18T13:09:04;11.70;99.90
20125;DHT22;10223;50.862;4.360;2023-02-18T13:11:40;11.50;99.90
20125;DHT22;10223;50.862;4.360;2023-02-18T13:14:17;11.40;99.90
20125;DHT22;10223;50.862;4.360;2023-02-18T13:16:50;11.40;99.90
20125;DHT22;10223;50.862;4.360;2023-02-18T13:19:20;11.30;99.90
20125;DHT22;10223;50.862;4.360;2023-02-18T13:21:50;11.20;99.90
20125;DHT22;10223;50.862;4.360;2023-02-18T13:24:26;11.20;99.90
20125;DHT22;10223;50.862;4.360;2023-02-18T13:26:59;11.20;99.90
20125;DHT22;10223;50.862;4.360;2023-02-18T13:29:33;11.20;99.90
20125;DHT22;10223;50.862;4.360;2023-02-18T13:32:08;11.20;99.90
20125;DHT22;10223;50.862;4.360;2023-02-18T13:34:43;11.30;99.90
20125;DHT22;10223;50.862;4.360;2023-02-18T13:37:19;11.20;99.90
20125;DHT22;10223;50.862;4.360;2023-02-18T13:39:50;11.30;99.90
20125;DHT22;10223;50.862;4.360;2023-02-18T13:42:34;11.20;99.90
20125;DHT22;10223;50.862;4.360;2023-02-18T13:45:25;11.20;99.90
20125;DHT22;10223;50.862;4.360;2023-02-18T13:47:54;11.10;99.90
20125;DHT22;10223;50.862;4.360;2023-02-18T13:50:41;11.20;99.90
20125;DHT22;10223;50.862;4.360;2023-02-18T13:53:20;11.10;99.90
20125;DHT22;10223;50.862;4.360;2023-02-18T13:55:57;11.10;99.90
20125;DHT22;10223;50.862;4.360;2023-02-18T13:58:30;11.10;99.90
20125;DHT22;10223;50.862;4.360;2023-02-18T14:01:01;11.00;99.90
20125;DHT22;10223;50.862;4.360;2023-02-18T14:06:36;10.90;99.90
20125;DHT22;10223;50.862;4.360;2023-02-18T14:09:40;11.00;99.90
20125;DHT22;10223;50.862;4.360;2023-02-18T14:12:24;11.00;99.90
20125;DHT22;10223;50.862;4.360;2023-02-18T14:14:51;10.90;99.90
20125;DHT22;10223;50.862;4.360;2023-02-18T14:17:38;10.90;99.90
20125;DHT22;10223;50.862;4.360;2023-02-18T14:20:27;10.90;99.90
20125;DHT22;10223;50.862;4.360;2023-02-18T14:22:54;10.90;99.90
20125;DHT22;10223;50.862;4.360;2023-02-18T14:25:33;10.90;99.90
20125;DHT22;10223;50.862;4.360;2023-02-18T14:28:03;11.00;99.90
20125;DHT22;10223;50.862;4.360;2023-02-18T14:30:38;10.90;99.90
20125;DHT22;10223;50.862;4.360;2023-02-18T14:33:14;11.00;99.90
20125;DHT22;10223;50.862;4.360;2023-02-18T14:35:45;11.00;99.90
20125;DHT22;10223;50.862;4.360;2023-02-18T14:38:32;11.00;99.90
20125;DHT22;10223;50.862;4.360;2023-02-18T14:41:16;11.00;99.90
20125;DHT22;10223;50.862;4.360;2023-02-18T14:47:21;11.10;99.90
20125;DHT22;10223;50.862;4.360;2023-02-18T14:49:51;11.10;99.90
20125;DHT22;10223;50.862;4.360;2023-02-18T14:52:26;11.20;99.90
20125;DHT22;10223;50.862;4.360;2023-02-18T14:54:55;11.10;99.90
20125;DHT22;10223;50.862;4.360;2023-02-18T14:57:30;11.10;99.90
20125;DHT22;10223;50.862;4.360;2023-02-18T14:59:59;11.10;99.90
20125;DHT22;10223;50.862;4.360;2023-02-18T15:02:27;11.20;99.90
20125;DHT22;10223;50.862;4.360;2023-02-18T15:05:10;11.10;99.90
20125;DHT22;10223;50.862;4.360;2023-02-18T15:07:38;11.10;99.90
20125;DHT22;10223;50.862;4.360;2023-02-18T15:10:12;11.10;99.90
20125;DHT22;10223;50.862;4.360;2023-02-18T15:12:41;11.20;99.90
20125;DHT22;10223;50.862;4.360;2023-02-18T15:15:12;11.20;99.90
20125;DHT22;10223;50.862;4.360;2023-02-18T15:17:44;11.30;99.90
20125;DHT22;10223;50.862;4.360;2023-02-18T15:20:11;11.20;99.90
20125;DHT22;10223;50.862;4.360;2023-02-18T15:22:39;11.10;99.90
20125;DHT22;10223;50.862;4.360;2023-02-18T15:25:10;11.10;99.90
20125;DHT22;10223;50.862;4.360;2023-02-18T15:27:41;11.20;99.90
20125;DHT22;10223;50.862;4.360;2023-02-18T15:30:19;11.30;99.90
20125;DHT22;10223;50.862;4.360;2023-02-18T15:32:50;11.20;99.90
20125;DHT22;10223;50.862;4.360;2023-02-18T15:35:19;11.20;99.90
20125;DHT22;10223;50.862;4.360;2023-02-18T15:37:54;11.20;99.90
20125;DHT22;10223;50.862;4.360;2023-02-18T15:40:23;11.30;99.90
20125;DHT22;10223;50.862;4.360;2023-02-18T15:42:55;11.20;99.90
20125;DHT22;10223;50.862;4.360;2023-02-18T15:45:28;11.20;99.90
20125;DHT22;10223;50.862;4.360;2023-02-18T15:47:57;11.10;99.90
20125;DHT22;10223;50.862;4.360;2023-02-18T15:50:27;11.10;99.90
20125;DHT22;10223;50.862;4.360;2023-02-18T15:52:57;11.10;99.90
20125;DHT22;10223;50.862;4.360;2023-02-18T15:55:29;11.10;99.90
20125;DHT22;10223;50.862;4.360;2023-02-18T15:57:59;11.10;99.90
20125;DHT22;10223;50.862;4.360;2023-02-18T16:00:30;11.10;99.90
20125;DHT22;10223;50.862;4.360;2023-02-18T16:03:04;11.10;99.90
20125;DHT22;10223;50.862;4.360;2023-02-18T16:05:37;11.10;99.90
20125;DHT22;10223;50.862;4.360;2023-02-18T16:08:11;11.10;99.90
20125;DHT22;10223;50.862;4.360;2023-02-18T16:10:46;11.10;99.90
20125;DHT22;10223;50.862;4.360;2023-02-18T16:13:16;11.10;99.90
20125;DHT22;10223;50.862;4.360;2023-02-18T16:15:48;11.20;99.90